createdAt,value
2018-12-27T00:00:36.481Z,996.72
2018-12-27T00:01:36.413Z,996.65
2018-12-27T00:02:36.347Z,996.69
2018-12-27T00:03:36.285Z,996.68
2018-12-27T00:04:36.224Z,996.61
2018-12-27T00:05:36.162Z,996.60
2018-12-27T00:06:36.101Z,996.62
2018-12-27T00:07:36.041Z,996.61
2018-12-27T00:08:35.993Z,996.59
2018-12-27T00:09:35.913Z,996.55
2018-12-27T00:10:35.851Z,996.54
2018-12-27T00:11:35.789Z,996.54
2018-12-27T00:12:35.730Z,996.52
2018-12-27T00:13:35.666Z,996.56
2018-12-27T00:14:35.603Z,996.59
2018-12-27T00:15:35.543Z,996.58
2018-12-27T00:16:35.480Z,996.56
2018-12-27T00:17:35.419Z,996.57
2018-12-27T00:18:35.357Z,996.55
2018-12-27T00:19:35.297Z,996.55
2018-12-27T00:20:35.231Z,996.57
2018-12-27T00:21:35.171Z,996.53
2018-12-27T00:22:35.110Z,996.52
2018-12-27T00:23:35.045Z,996.55
2018-12-27T00:24:34.986Z,996.49
2018-12-27T00:25:34.920Z,996.53
2018-12-27T00:26:34.858Z,996.53
2018-12-27T00:27:34.797Z,996.48
2018-12-27T00:28:34.734Z,996.50
2018-12-27T00:29:34.675Z,996.47
2018-12-27T00:30:34.611Z,996.44
2018-12-27T00:31:34.548Z,996.44
2018-12-27T00:32:34.489Z,996.44
2018-12-27T00:33:34.424Z,996.41
2018-12-27T00:34:34.362Z,996.41
2018-12-27T00:35:34.300Z,996.41
2018-12-27T00:36:34.244Z,996.36
2018-12-27T00:37:34.177Z,996.35
2018-12-27T00:38:34.112Z,996.34
2018-12-27T00:39:34.051Z,996.32
2018-12-27T00:40:33.990Z,996.28
2018-12-27T00:41:33.927Z,996.27
2018-12-27T00:42:33.866Z,996.31
2018-12-27T00:43:33.804Z,996.29
2018-12-27T00:44:33.741Z,996.31
2018-12-27T00:45:33.678Z,996.27
2018-12-27T00:46:33.616Z,996.28
2018-12-27T00:47:33.556Z,996.26
2018-12-27T00:48:33.494Z,996.25
2018-12-27T00:49:33.432Z,996.27
2018-12-27T00:50:33.374Z,996.30
2018-12-27T00:51:33.314Z,996.23
2018-12-27T00:52:33.244Z,996.31
2018-12-27T00:53:33.183Z,996.32
2018-12-27T00:54:33.200Z,996.31
2018-12-27T00:55:33.059Z,996.27
2018-12-27T00:56:32.996Z,996.27
2018-12-27T00:57:32.934Z,996.26
2018-12-27T00:58:32.876Z,996.27
2018-12-27T00:59:32.810Z,996.30
2018-12-27T01:00:32.748Z,996.28
2018-12-27T01:01:32.684Z,996.30
2018-12-27T01:02:32.624Z,996.30
2018-12-27T01:03:32.564Z,996.25
2018-12-27T01:04:32.499Z,996.24
2018-12-27T01:05:32.440Z,996.27
2018-12-27T01:06:32.375Z,996.23
2018-12-27T01:07:32.316Z,996.17
2018-12-27T01:08:32.251Z,996.24
2018-12-27T01:09:32.190Z,996.21
2018-12-27T01:10:32.129Z,996.23
2018-12-27T01:11:32.064Z,996.23
2018-12-27T01:12:32.007Z,996.22
2018-12-27T01:13:31.950Z,996.15
2018-12-27T01:14:31.885Z,996.14
2018-12-27T01:15:31.818Z,996.14
2018-12-27T01:16:31.755Z,996.17
2018-12-27T01:17:31.691Z,996.15
2018-12-27T01:18:31.630Z,996.18
2018-12-27T01:19:31.567Z,996.21
2018-12-27T01:20:31.510Z,996.18
2018-12-27T01:21:31.443Z,996.19
2018-12-27T01:22:31.382Z,996.19
2018-12-27T01:23:31.319Z,996.12
2018-12-27T01:24:31.261Z,996.14
2018-12-27T01:25:31.193Z,996.15
2018-12-27T01:26:31.134Z,996.19
2018-12-27T01:27:31.070Z,996.22
2018-12-27T01:28:31.061Z,996.15
2018-12-27T01:29:30.946Z,996.22
2018-12-27T01:30:30.883Z,996.24
2018-12-27T01:31:30.820Z,996.21
2018-12-27T01:32:30.760Z,996.23
2018-12-27T01:33:30.696Z,996.27
2018-12-27T01:34:30.634Z,996.26
2018-12-27T01:35:30.573Z,996.25
2018-12-27T01:36:30.511Z,996.24
2018-12-27T01:37:30.448Z,996.25
2018-12-27T01:38:30.385Z,996.23
2018-12-27T01:39:30.324Z,996.22
2018-12-27T01:40:30.263Z,996.18
2018-12-27T01:41:30.201Z,996.24
2018-12-27T01:42:30.138Z,996.26
2018-12-27T01:43:30.075Z,996.23
2018-12-27T01:44:30.015Z,996.27
2018-12-27T01:45:29.953Z,996.25
2018-12-27T01:46:29.890Z,996.23
2018-12-27T01:47:29.829Z,996.24
2018-12-27T01:48:29.764Z,996.26
2018-12-27T01:49:29.712Z,996.22
2018-12-27T01:50:29.642Z,996.19
2018-12-27T01:51:29.580Z,996.17
2018-12-27T01:52:29.517Z,996.20
2018-12-27T01:53:29.454Z,996.16
2018-12-27T01:54:29.392Z,996.18
2018-12-27T01:55:29.329Z,996.16
2018-12-27T01:56:29.268Z,996.15
2018-12-27T01:57:29.210Z,996.13
2018-12-27T01:58:29.142Z,996.15
2018-12-27T01:59:29.081Z,996.15
2018-12-27T02:00:29.019Z,996.08
2018-12-27T02:01:28.962Z,996.12
2018-12-27T02:02:28.894Z,996.10
2018-12-27T02:03:28.835Z,996.09
2018-12-27T02:04:28.769Z,996.08
2018-12-27T02:05:28.707Z,996.03
2018-12-27T02:06:28.649Z,996.03
2018-12-27T02:07:28.583Z,996.01
2018-12-27T02:08:28.521Z,996.06
2018-12-27T02:09:28.458Z,996.07
2018-12-27T02:10:28.395Z,996.07
2018-12-27T02:11:28.404Z,996.08
2018-12-27T02:12:28.274Z,996.04
2018-12-27T02:13:28.210Z,995.99
2018-12-27T02:14:28.158Z,996.00
2018-12-27T02:15:28.087Z,996.00
2018-12-27T02:16:28.024Z,995.93
2018-12-27T02:17:27.962Z,995.99
2018-12-27T02:18:27.900Z,995.94
2018-12-27T02:19:27.837Z,995.94
2018-12-27T02:20:27.780Z,995.94
2018-12-27T02:21:27.714Z,995.99
2018-12-27T02:22:27.649Z,995.93
2018-12-27T02:23:27.588Z,995.91
2018-12-27T02:24:27.526Z,995.92
2018-12-27T02:25:27.466Z,995.88
2018-12-27T02:26:27.400Z,995.88
2018-12-27T02:27:27.338Z,995.86
2018-12-27T02:28:27.275Z,995.79
2018-12-27T02:29:27.213Z,995.88
2018-12-27T02:30:27.157Z,995.83
2018-12-27T02:31:27.090Z,995.85
2018-12-27T02:32:27.029Z,995.82
2018-12-27T02:33:35.041Z,995.78
2018-12-27T02:34:26.904Z,995.78
2018-12-27T02:35:26.841Z,995.79
2018-12-27T02:36:26.797Z,995.72
2018-12-27T02:37:26.720Z,995.72
2018-12-27T02:38:26.654Z,995.75
2018-12-27T02:39:26.593Z,995.75
2018-12-27T02:40:26.530Z,995.73
2018-12-27T02:41:26.467Z,995.73
2018-12-27T02:42:26.406Z,995.79
2018-12-27T02:43:26.342Z,995.73
2018-12-27T02:44:26.281Z,995.79
2018-12-27T02:45:26.221Z,995.78
2018-12-27T02:46:26.157Z,995.72
2018-12-27T02:47:26.095Z,995.71
2018-12-27T02:48:26.032Z,995.69
2018-12-27T02:49:25.969Z,995.69
2018-12-27T02:50:25.907Z,995.67
2018-12-27T02:51:25.854Z,995.71
2018-12-27T02:52:25.783Z,995.71
2018-12-27T02:53:25.719Z,995.68
2018-12-27T02:54:25.659Z,995.68
2018-12-27T02:55:25.598Z,995.68
2018-12-27T02:56:25.535Z,995.66
2018-12-27T02:57:25.471Z,995.62
2018-12-27T02:58:25.416Z,995.61
2018-12-27T02:59:25.363Z,995.55
2018-12-27T03:00:25.286Z,995.60
2018-12-27T03:01:25.222Z,995.59
2018-12-27T03:02:25.165Z,995.63
2018-12-27T03:03:25.099Z,995.54
2018-12-27T03:04:25.038Z,995.57
2018-12-27T03:05:24.974Z,995.56
2018-12-27T03:06:24.916Z,995.53
2018-12-27T03:07:24.859Z,995.45
2018-12-27T03:08:24.787Z,995.43
2018-12-27T03:09:24.726Z,995.48
2018-12-27T03:10:24.663Z,995.44
2018-12-27T03:11:24.600Z,995.43
2018-12-27T03:12:24.538Z,995.39
2018-12-27T03:13:24.475Z,995.48
2018-12-27T03:14:24.416Z,995.46
2018-12-27T03:15:24.352Z,995.48
2018-12-27T03:16:24.304Z,995.44
2018-12-27T03:17:24.225Z,995.45
2018-12-27T03:18:24.164Z,995.39
2018-12-27T03:19:24.120Z,995.39
2018-12-27T03:20:24.040Z,995.32
2018-12-27T03:21:23.978Z,995.32
2018-12-27T03:22:23.924Z,995.31
2018-12-27T03:23:23.854Z,995.26
2018-12-27T03:24:23.810Z,995.28
2018-12-27T03:25:23.728Z,995.27
2018-12-27T03:26:23.667Z,995.25
2018-12-27T03:27:23.604Z,995.23
2018-12-27T03:28:23.541Z,995.25
2018-12-27T03:29:23.478Z,995.22
2018-12-27T03:30:23.418Z,995.19
2018-12-27T03:31:23.356Z,995.17
2018-12-27T03:32:23.308Z,995.12
2018-12-27T03:33:23.230Z,995.14
2018-12-27T03:34:23.168Z,995.16
2018-12-27T03:35:23.105Z,995.15
2018-12-27T03:36:23.045Z,995.10
2018-12-27T03:37:22.981Z,995.16
2018-12-27T03:38:22.918Z,995.10
2018-12-27T03:39:22.856Z,995.14
2018-12-27T03:40:22.796Z,995.09
2018-12-27T03:41:22.731Z,995.07
2018-12-27T03:42:22.672Z,995.09
2018-12-27T03:43:22.609Z,995.05
2018-12-27T03:44:22.545Z,995.04
2018-12-27T03:45:22.482Z,995.04
2018-12-27T03:46:22.419Z,995.03
2018-12-27T03:47:22.359Z,995.04
2018-12-27T03:48:22.296Z,995.07
2018-12-27T03:49:22.239Z,995.06
2018-12-27T03:50:22.177Z,994.97
2018-12-27T03:51:22.111Z,995.00
2018-12-27T03:52:22.046Z,994.97
2018-12-27T03:53:21.982Z,994.97
2018-12-27T03:54:21.922Z,995.01
2018-12-27T03:55:21.863Z,994.99
2018-12-27T03:56:21.799Z,994.97
2018-12-27T03:57:21.735Z,994.98
2018-12-27T03:58:21.675Z,994.93
2018-12-27T03:59:21.613Z,994.90
2018-12-27T04:00:21.553Z,994.90
2018-12-27T04:01:21.485Z,994.89
2018-12-27T04:02:21.422Z,994.92
2018-12-27T04:03:21.425Z,994.84
2018-12-27T04:04:21.304Z,994.87
2018-12-27T04:05:21.238Z,994.87
2018-12-27T04:06:21.174Z,994.83
2018-12-27T04:07:21.111Z,994.83
2018-12-27T04:08:21.051Z,994.84
2018-12-27T04:09:20.985Z,994.84
2018-12-27T04:10:20.924Z,994.82
2018-12-27T04:11:20.862Z,994.85
2018-12-27T04:12:20.806Z,994.87
2018-12-27T04:13:20.738Z,994.86
2018-12-27T04:14:20.675Z,994.90
2018-12-27T04:15:20.615Z,994.93
2018-12-27T04:16:20.550Z,994.85
2018-12-27T04:17:20.494Z,994.83
2018-12-27T04:18:20.426Z,994.84
2018-12-27T04:19:20.364Z,994.80
2018-12-27T04:20:20.301Z,994.81
2018-12-27T04:21:20.241Z,994.81
2018-12-27T04:22:20.177Z,994.82
2018-12-27T04:23:20.116Z,994.77
2018-12-27T04:24:20.052Z,994.75
2018-12-27T04:25:19.990Z,994.76
2018-12-27T04:26:19.927Z,994.72
2018-12-27T04:27:19.865Z,994.70
2018-12-27T04:28:19.805Z,994.71
2018-12-27T04:29:19.743Z,994.69
2018-12-27T04:30:19.681Z,994.70
2018-12-27T04:31:19.616Z,994.69
2018-12-27T04:32:19.555Z,994.74
2018-12-27T04:33:19.490Z,994.72
2018-12-27T04:34:19.427Z,994.68
2018-12-27T04:35:19.368Z,994.71
2018-12-27T04:36:19.303Z,994.65
2018-12-27T04:37:19.240Z,994.69
2018-12-27T04:38:19.178Z,994.69
2018-12-27T04:39:19.115Z,994.71
2018-12-27T04:40:19.054Z,994.73
2018-12-27T04:41:18.992Z,994.71
2018-12-27T04:42:18.929Z,994.75
2018-12-27T04:43:18.871Z,994.70
2018-12-27T04:44:18.804Z,994.73
2018-12-27T04:45:18.744Z,994.73
2018-12-27T04:46:18.678Z,994.77
2018-12-27T04:47:18.617Z,994.78
2018-12-27T04:48:18.554Z,994.82
2018-12-27T04:49:18.490Z,994.78
2018-12-27T04:50:18.429Z,994.78
2018-12-27T04:51:18.368Z,994.80
2018-12-27T04:52:18.305Z,994.80
2018-12-27T04:53:18.241Z,994.80
2018-12-27T04:54:18.181Z,994.83
2018-12-27T04:55:18.118Z,994.81
2018-12-27T04:56:18.056Z,994.82
2018-12-27T04:57:17.993Z,994.78
2018-12-27T04:58:17.933Z,994.78
2018-12-27T04:59:17.868Z,994.78
2018-12-27T05:00:17.806Z,994.79
2018-12-27T05:01:17.742Z,994.76
2018-12-27T05:02:17.683Z,994.73
2018-12-27T05:03:17.619Z,994.73
2018-12-27T05:04:18.411Z,994.73
2018-12-27T05:05:17.494Z,994.77
2018-12-27T05:06:17.430Z,994.77
2018-12-27T05:07:17.372Z,994.75
2018-12-27T05:08:17.306Z,994.79
2018-12-27T05:09:17.244Z,994.74
2018-12-27T05:10:17.185Z,994.74
2018-12-27T05:11:17.122Z,994.75
2018-12-27T05:12:17.057Z,994.72
2018-12-27T05:13:16.993Z,994.70
2018-12-27T05:14:16.936Z,994.66
2018-12-27T05:15:16.869Z,994.66
2018-12-27T05:16:16.814Z,994.63
2018-12-27T05:17:16.745Z,994.63
2018-12-27T05:18:16.681Z,994.61
2018-12-27T05:19:16.620Z,994.60
2018-12-27T05:20:16.557Z,994.66
2018-12-27T05:21:16.493Z,994.60
2018-12-27T05:22:16.434Z,994.63
2018-12-27T05:23:16.370Z,994.66
2018-12-27T05:24:16.312Z,994.69
2018-12-27T05:25:16.244Z,994.69
2018-12-27T05:26:16.182Z,994.70
2018-12-27T05:27:16.119Z,994.71
2018-12-27T05:28:16.059Z,994.68
2018-12-27T05:29:15.994Z,994.74
2018-12-27T05:30:15.932Z,994.76
2018-12-27T05:31:15.875Z,994.76
2018-12-27T05:32:15.809Z,994.76
2018-12-27T05:33:15.750Z,994.73
2018-12-27T05:34:15.682Z,994.74
2018-12-27T05:35:15.619Z,994.73
2018-12-27T05:36:15.557Z,994.76
2018-12-27T05:37:15.494Z,994.75
2018-12-27T05:38:15.431Z,994.76
2018-12-27T05:39:15.370Z,994.75
2018-12-27T05:40:15.307Z,994.78
2018-12-27T05:41:15.245Z,994.76
2018-12-27T05:42:15.182Z,994.77
2018-12-27T05:43:15.120Z,994.77
2018-12-27T05:44:15.057Z,994.77
2018-12-27T05:45:14.994Z,994.76
2018-12-27T05:46:14.932Z,994.76
2018-12-27T05:47:14.870Z,994.82
2018-12-27T05:48:14.807Z,994.84
2018-12-27T05:49:14.744Z,994.81
2018-12-27T05:50:14.682Z,994.84
2018-12-27T05:51:14.620Z,994.82
2018-12-27T05:52:14.562Z,994.83
2018-12-27T05:53:14.494Z,994.83
2018-12-27T05:54:14.433Z,994.82
2018-12-27T05:55:14.370Z,994.80
2018-12-27T05:56:14.310Z,994.78
2018-12-27T05:57:14.255Z,994.76
2018-12-27T05:58:14.191Z,994.76
2018-12-27T05:59:14.119Z,994.78
2018-12-27T06:00:14.059Z,994.77
2018-12-27T06:01:13.995Z,994.79
2018-12-27T06:02:13.932Z,994.78
2018-12-27T06:03:13.869Z,994.75
2018-12-27T06:04:13.809Z,994.78
2018-12-27T06:05:13.744Z,994.70
2018-12-27T06:06:13.683Z,994.72
2018-12-27T06:07:13.621Z,994.76
2018-12-27T06:08:13.557Z,994.70
2018-12-27T06:09:13.495Z,994.68
2018-12-27T06:10:13.432Z,994.66
2018-12-27T06:11:13.370Z,994.71
2018-12-27T06:12:13.308Z,994.65
2018-12-27T06:13:13.245Z,994.62
2018-12-27T06:14:13.183Z,994.67
2018-12-27T06:15:13.121Z,994.68
2018-12-27T06:16:13.058Z,994.67
2018-12-27T06:17:13.017Z,994.68
2018-12-27T06:18:12.935Z,994.67
2018-12-27T06:19:12.871Z,994.61
2018-12-27T06:20:12.818Z,994.59
2018-12-27T06:21:12.748Z,994.57
2018-12-27T06:22:12.683Z,994.60
2018-12-27T06:23:12.623Z,994.57
2018-12-27T06:24:12.566Z,994.57
2018-12-27T06:25:12.498Z,994.56
2018-12-27T06:26:12.432Z,994.56
2018-12-27T06:27:12.370Z,994.57
2018-12-27T06:28:12.308Z,994.62
2018-12-27T06:29:12.244Z,994.63
2018-12-27T06:30:12.182Z,994.67
2018-12-27T06:31:12.120Z,994.67
2018-12-27T06:32:12.059Z,994.66
2018-12-27T06:33:11.995Z,994.68
2018-12-27T06:34:11.934Z,994.68
2018-12-27T06:35:11.869Z,994.68
2018-12-27T06:36:11.808Z,994.66
2018-12-27T06:37:11.746Z,994.58
2018-12-27T06:38:11.681Z,994.63
2018-12-27T06:39:11.622Z,994.58
2018-12-27T06:40:11.559Z,994.61
2018-12-27T06:41:11.493Z,994.61
2018-12-27T06:42:11.432Z,994.58
2018-12-27T06:43:11.370Z,994.64
2018-12-27T06:44:11.308Z,994.61
2018-12-27T06:45:11.246Z,994.63
2018-12-27T06:46:11.181Z,994.63
2018-12-27T06:47:11.120Z,994.61
2018-12-27T06:48:11.062Z,994.68
2018-12-27T06:49:10.995Z,994.64
2018-12-27T06:50:10.931Z,994.67
2018-12-27T06:51:10.871Z,994.63
2018-12-27T06:52:10.807Z,994.65
2018-12-27T06:53:10.744Z,994.68
2018-12-27T06:54:10.681Z,994.67
2018-12-27T06:55:10.702Z,994.60
2018-12-27T06:56:10.558Z,994.60
2018-12-27T06:57:10.494Z,994.60
2018-12-27T06:58:10.432Z,994.58
2018-12-27T06:59:10.369Z,994.54
2018-12-27T07:00:10.309Z,994.47
2018-12-27T07:01:10.243Z,994.57
2018-12-27T07:02:10.181Z,994.61
2018-12-27T07:03:10.118Z,994.59
2018-12-27T07:04:10.056Z,994.62
2018-12-27T07:05:09.995Z,994.66
2018-12-27T07:06:09.931Z,994.66
2018-12-27T07:07:09.868Z,994.65
2018-12-27T07:08:09.807Z,994.61
2018-12-27T07:09:09.745Z,994.59
2018-12-27T07:10:09.684Z,994.57
2018-12-27T07:11:09.619Z,994.61
2018-12-27T07:12:09.561Z,994.66
2018-12-27T07:13:09.498Z,994.67
2018-12-27T07:14:09.434Z,994.63
2018-12-27T07:15:09.369Z,994.61
2018-12-27T07:16:09.305Z,994.58
2018-12-27T07:17:09.242Z,994.57
2018-12-27T07:18:09.183Z,994.54
2018-12-27T07:19:09.119Z,994.55
2018-12-27T07:20:09.055Z,994.55
2018-12-27T07:21:08.993Z,994.62
2018-12-27T07:22:08.929Z,994.59
2018-12-27T07:23:08.869Z,994.59
2018-12-27T07:24:08.804Z,994.60
2018-12-27T07:25:08.741Z,994.64
2018-12-27T07:26:08.679Z,994.59
2018-12-27T07:27:08.615Z,994.61
2018-12-27T07:28:08.554Z,994.61
2018-12-27T07:29:08.490Z,994.66
2018-12-27T07:30:08.428Z,994.66
2018-12-27T07:31:08.366Z,994.68
2018-12-27T07:32:08.303Z,994.63
2018-12-27T07:33:08.242Z,994.66
2018-12-27T07:34:08.179Z,994.69
2018-12-27T07:35:08.118Z,994.78
2018-12-27T07:36:08.054Z,994.79
2018-12-27T07:37:07.991Z,994.75
2018-12-27T07:38:07.929Z,994.88
2018-12-27T07:39:07.867Z,994.82
2018-12-27T07:40:07.817Z,994.77
2018-12-27T07:41:07.744Z,994.83
2018-12-27T07:42:07.681Z,994.80
2018-12-27T07:43:07.616Z,994.86
2018-12-27T07:44:07.552Z,994.81
2018-12-27T07:45:07.490Z,994.84
2018-12-27T07:46:10.919Z,994.83
2018-12-27T07:47:07.364Z,994.79
2018-12-27T07:48:07.307Z,994.78
2018-12-27T07:49:07.242Z,994.80
2018-12-27T07:50:07.176Z,994.76
2018-12-27T07:51:07.118Z,994.75
2018-12-27T07:52:07.054Z,994.69
2018-12-27T07:53:06.988Z,994.66
2018-12-27T07:54:06.925Z,994.60
2018-12-27T07:55:06.863Z,994.58
2018-12-27T07:56:06.801Z,994.58
2018-12-27T07:57:06.738Z,994.56
2018-12-27T07:58:06.675Z,994.55
2018-12-27T07:59:06.613Z,994.59
2018-12-27T08:00:06.553Z,994.61
2018-12-27T08:01:06.487Z,994.61
2018-12-27T08:02:06.425Z,994.60
2018-12-27T08:03:06.362Z,994.63
2018-12-27T08:04:06.300Z,994.61
2018-12-27T08:05:06.237Z,994.60
2018-12-27T08:06:06.254Z,994.59
2018-12-27T08:07:06.113Z,994.56
2018-12-27T08:08:06.049Z,994.55
2018-12-27T08:09:05.985Z,994.56
2018-12-27T08:10:05.926Z,994.52
2018-12-27T08:11:05.862Z,994.54
2018-12-27T08:12:05.798Z,994.57
2018-12-27T08:13:05.747Z,994.57
2018-12-27T08:14:05.680Z,994.57
2018-12-27T08:15:05.611Z,994.57
2018-12-27T08:16:05.549Z,994.53
2018-12-27T08:17:05.485Z,994.56
2018-12-27T08:18:05.422Z,994.56
2018-12-27T08:19:05.360Z,994.52
2018-12-27T08:20:05.297Z,994.55
2018-12-27T08:21:05.234Z,994.52
2018-12-27T08:22:05.174Z,994.52
2018-12-27T08:23:05.109Z,994.50
2018-12-27T08:24:05.050Z,994.46
2018-12-27T08:25:05.001Z,994.48
2018-12-27T08:26:04.927Z,994.39
2018-12-27T08:27:04.860Z,994.48
2018-12-27T08:28:04.799Z,994.45
2018-12-27T08:29:04.736Z,994.49
2018-12-27T08:30:04.673Z,994.52
2018-12-27T08:31:04.610Z,994.51
2018-12-27T08:32:04.551Z,994.54
2018-12-27T08:33:04.482Z,994.50
2018-12-27T08:34:04.424Z,994.55
2018-12-27T08:35:11.228Z,994.53
2018-12-27T08:36:04.297Z,994.58
2018-12-27T08:37:04.233Z,994.54
2018-12-27T08:38:04.171Z,994.57
2018-12-27T08:39:04.118Z,994.54
2018-12-27T08:40:04.045Z,994.57
2018-12-27T08:41:03.981Z,994.57
2018-12-27T08:42:03.920Z,994.54
2018-12-27T08:43:03.857Z,994.51
2018-12-27T08:44:03.795Z,994.55
2018-12-27T08:45:03.730Z,994.55
2018-12-27T08:46:03.670Z,994.53
2018-12-27T08:47:03.606Z,994.51
2018-12-27T08:48:03.544Z,994.52
2018-12-27T08:49:03.480Z,994.50
2018-12-27T08:50:03.419Z,994.50
2018-12-27T08:51:03.359Z,994.49
2018-12-27T08:52:03.293Z,994.49
2018-12-27T08:53:03.233Z,994.48
2018-12-27T08:54:03.167Z,994.49
2018-12-27T08:55:03.105Z,994.52
2018-12-27T08:56:03.042Z,994.49
2018-12-27T08:57:02.979Z,994.49
2018-12-27T08:58:02.917Z,994.51
2018-12-27T08:59:02.855Z,994.53
2018-12-27T09:00:02.792Z,994.50
2018-12-27T09:01:02.730Z,994.53
2018-12-27T09:02:02.669Z,994.47
2018-12-27T09:03:02.606Z,994.48
2018-12-27T09:04:02.543Z,994.48
2018-12-27T09:05:02.478Z,994.50
2018-12-27T09:06:02.416Z,994.48
2018-12-27T09:07:02.355Z,994.50
2018-12-27T09:08:02.290Z,994.52
2018-12-27T09:09:02.229Z,994.51
2018-12-27T09:10:02.167Z,994.51
2018-12-27T09:11:02.108Z,994.49
2018-12-27T09:12:02.041Z,994.45
2018-12-27T09:13:01.978Z,994.51
2018-12-27T09:14:01.916Z,994.50
2018-12-27T09:15:01.866Z,994.53
2018-12-27T09:16:01.791Z,994.54
2018-12-27T09:17:01.726Z,994.51
2018-12-27T09:18:01.666Z,994.50
2018-12-27T09:19:01.601Z,994.50
2018-12-27T09:20:01.541Z,994.45
2018-12-27T09:21:01.477Z,994.48
2018-12-27T09:22:01.416Z,994.44
2018-12-27T09:23:01.352Z,994.47
2018-12-27T09:24:01.290Z,994.52
2018-12-27T09:25:01.227Z,994.48
2018-12-27T09:26:01.164Z,994.41
2018-12-27T09:27:01.099Z,994.44
2018-12-27T09:28:01.039Z,994.42
2018-12-27T09:29:00.974Z,994.44
2018-12-27T09:30:00.915Z,994.45
2018-12-27T09:31:00.850Z,994.42
2018-12-27T09:32:00.788Z,994.40
2018-12-27T09:33:00.726Z,994.41
2018-12-27T09:34:00.663Z,994.36
2018-12-27T09:35:00.599Z,994.36
2018-12-27T09:36:00.537Z,994.41
2018-12-27T09:37:00.476Z,994.48
2018-12-27T09:38:00.412Z,994.46
2018-12-27T09:39:00.355Z,994.39
2018-12-27T09:40:00.286Z,994.42
2018-12-27T09:41:00.223Z,994.43
2018-12-27T09:42:00.166Z,994.42
2018-12-27T09:43:00.098Z,994.46
2018-12-27T09:44:00.035Z,994.46
2018-12-27T09:44:59.973Z,994.46
2018-12-27T09:45:59.912Z,994.41
2018-12-27T09:46:59.855Z,994.43
2018-12-27T09:47:59.805Z,994.48
2018-12-27T09:48:59.723Z,994.43
2018-12-27T09:49:59.659Z,994.43
2018-12-27T09:50:59.597Z,994.46
2018-12-27T09:52:02.141Z,994.43
2018-12-27T09:52:59.472Z,994.41
2018-12-27T09:53:59.413Z,994.42
2018-12-27T09:54:59.348Z,994.40
2018-12-27T09:55:59.285Z,994.41
2018-12-27T09:56:59.222Z,994.39
2018-12-27T09:57:59.162Z,994.36
2018-12-27T09:58:59.096Z,994.37
2018-12-27T09:59:59.035Z,994.39
2018-12-27T10:00:58.972Z,994.40
2018-12-27T10:01:58.908Z,994.40
2018-12-27T10:02:58.858Z,994.39
2018-12-27T10:03:58.789Z,994.35
2018-12-27T10:04:58.720Z,994.40
2018-12-27T10:05:59.243Z,994.38
2018-12-27T10:06:58.600Z,994.37
2018-12-27T10:07:58.534Z,994.37
2018-12-27T10:08:58.471Z,994.33
2018-12-27T10:09:58.411Z,994.29
2018-12-27T10:10:58.345Z,994.31
2018-12-27T10:11:58.285Z,994.29
2018-12-27T10:12:58.221Z,994.22
2018-12-27T10:13:58.157Z,994.24
2018-12-27T10:14:58.097Z,994.22
2018-12-27T10:15:58.035Z,994.20
2018-12-27T10:16:57.969Z,994.17
2018-12-27T10:17:57.908Z,994.19
2018-12-27T10:18:57.849Z,994.20
2018-12-27T10:19:57.783Z,994.20
2018-12-27T10:20:57.720Z,994.22
2018-12-27T10:21:57.658Z,994.19
2018-12-27T10:22:57.599Z,994.17
2018-12-27T10:23:57.536Z,994.19
2018-12-27T10:24:57.471Z,994.19
2018-12-27T10:25:57.407Z,994.17
2018-12-27T10:26:57.350Z,994.15
2018-12-27T10:27:57.283Z,994.18
2018-12-27T10:28:57.220Z,994.17
2018-12-27T10:29:57.160Z,994.16
2018-12-27T10:30:59.919Z,994.15
2018-12-27T10:31:57.034Z,994.06
2018-12-27T10:32:56.973Z,994.10
2018-12-27T10:33:56.908Z,994.12
2018-12-27T10:34:56.845Z,994.05
2018-12-27T10:35:56.783Z,994.04
2018-12-27T10:36:56.723Z,994.05
2018-12-27T10:37:56.657Z,994.04
2018-12-27T10:38:56.596Z,994.01
2018-12-27T10:39:56.532Z,994.04
2018-12-27T10:40:56.468Z,994.06
2018-12-27T10:41:56.407Z,994.06
2018-12-27T10:42:56.345Z,994.09
2018-12-27T10:43:56.327Z,994.06
2018-12-27T10:44:56.220Z,994.07
2018-12-27T10:45:56.156Z,994.06
2018-12-27T10:46:56.098Z,994.09
2018-12-27T10:47:56.032Z,994.05
2018-12-27T10:48:55.969Z,994.04
2018-12-27T10:49:55.907Z,994.02
2018-12-27T10:50:55.844Z,994.05
2018-12-27T10:51:55.782Z,993.99
2018-12-27T10:52:55.717Z,994.02
2018-12-27T10:53:55.661Z,993.93
2018-12-27T10:54:55.598Z,993.98
2018-12-27T10:55:55.536Z,993.99
2018-12-27T10:56:55.468Z,993.99
2018-12-27T10:57:55.406Z,993.96
2018-12-27T10:58:55.344Z,993.94
2018-12-27T10:59:55.282Z,993.96
2018-12-27T11:00:55.218Z,993.95
2018-12-27T11:01:55.156Z,993.94
2018-12-27T11:02:55.094Z,993.92
2018-12-27T11:03:55.033Z,993.92
2018-12-27T11:04:54.970Z,993.87
2018-12-27T11:05:54.912Z,993.91
2018-12-27T11:06:54.843Z,993.89
2018-12-27T11:07:54.781Z,993.83
2018-12-27T11:08:54.718Z,993.84
2018-12-27T11:09:54.657Z,993.84
2018-12-27T11:10:54.592Z,993.81
2018-12-27T11:11:54.533Z,993.79
2018-12-27T11:12:54.468Z,993.78
2018-12-27T11:13:54.405Z,993.75
2018-12-27T11:14:54.345Z,993.73
2018-12-27T11:15:54.284Z,993.69
2018-12-27T11:16:54.219Z,993.68
2018-12-27T11:17:54.165Z,993.68
2018-12-27T11:18:54.095Z,993.66
2018-12-27T11:19:54.031Z,993.61
2018-12-27T11:20:53.971Z,993.65
2018-12-27T11:21:53.907Z,993.59
2018-12-27T11:22:53.877Z,993.57
2018-12-27T11:23:53.781Z,993.59
2018-12-27T11:24:53.718Z,993.57
2018-12-27T11:25:53.656Z,993.55
2018-12-27T11:26:53.594Z,993.53
2018-12-27T11:27:53.531Z,993.56
2018-12-27T11:28:53.468Z,993.53
2018-12-27T11:29:53.405Z,993.56
2018-12-27T11:30:53.348Z,993.52
2018-12-27T11:31:53.281Z,993.52
2018-12-27T11:32:53.224Z,993.52
2018-12-27T11:33:53.155Z,993.52
2018-12-27T11:34:53.093Z,993.49
2018-12-27T11:35:55.885Z,993.47
2018-12-27T11:36:52.968Z,993.48
2018-12-27T11:37:52.905Z,993.46
2018-12-27T11:38:52.849Z,993.42
2018-12-27T11:39:52.780Z,993.44
2018-12-27T11:40:52.718Z,993.38
2018-12-27T11:41:52.659Z,993.37
2018-12-27T11:42:52.593Z,993.31
2018-12-27T11:43:52.532Z,993.36
2018-12-27T11:44:52.471Z,993.36
2018-12-27T11:45:52.405Z,993.38
2018-12-27T11:46:52.343Z,993.32
2018-12-27T11:47:52.281Z,993.31
2018-12-27T11:48:52.217Z,993.31
2018-12-27T11:49:52.156Z,993.31
2018-12-27T11:50:52.095Z,993.27
2018-12-27T11:51:52.031Z,993.30
2018-12-27T11:52:51.967Z,993.26
2018-12-27T11:53:51.907Z,993.26
2018-12-27T11:54:51.843Z,993.24
2018-12-27T11:55:51.780Z,993.20
2018-12-27T11:56:51.717Z,993.21
2018-12-27T11:57:51.656Z,993.21
2018-12-27T11:58:51.596Z,993.19
2018-12-27T11:59:51.530Z,993.21
2018-12-27T12:00:51.467Z,993.19
2018-12-27T12:01:51.405Z,993.22
2018-12-27T12:02:51.343Z,993.15
2018-12-27T12:03:51.280Z,993.15
2018-12-27T12:04:51.217Z,993.15
2018-12-27T12:05:51.156Z,993.14
2018-12-27T12:06:51.094Z,993.10
2018-12-27T12:07:51.030Z,993.13
2018-12-27T12:08:50.968Z,993.06
2018-12-27T12:09:50.907Z,993.10
2018-12-27T12:10:50.845Z,993.04
2018-12-27T12:11:50.782Z,993.06
2018-12-27T12:12:50.726Z,993.05
2018-12-27T12:13:50.658Z,993.02
2018-12-27T12:14:50.598Z,993.04
2018-12-27T12:15:50.537Z,993.01
2018-12-27T12:16:50.467Z,992.99
2018-12-27T12:17:50.407Z,992.97
2018-12-27T12:18:50.364Z,992.94
2018-12-27T12:19:50.280Z,993.00
2018-12-27T12:20:50.218Z,992.91
2018-12-27T12:21:50.157Z,992.89
2018-12-27T12:22:50.094Z,992.86
2018-12-27T12:23:50.038Z,992.82
2018-12-27T12:24:49.979Z,992.87
2018-12-27T12:25:49.905Z,992.84
2018-12-27T12:26:49.852Z,992.85
2018-12-27T12:27:49.780Z,992.87